createdAt,value
2018-12-05T00:00:21.852Z,102437.88
2018-12-05T00:02:49.247Z,102436.17
2018-12-05T00:05:16.579Z,102448.68
2018-12-05T00:07:44.936Z,102441.69
2018-12-05T00:10:12.394Z,102446.03
2018-12-05T00:12:39.711Z,102451.38
2018-12-05T00:15:07.587Z,102448.49
2018-12-05T00:17:35.391Z,102447.30
2018-12-05T00:20:03.120Z,102444.89
2018-12-05T00:22:30.539Z,102442.24
2018-12-05T00:24:57.847Z,102443.67
2018-12-05T00:27:25.151Z,102439.59
2018-12-05T00:29:52.439Z,102440.75
2018-12-05T00:32:19.755Z,102445.36
2018-12-05T00:34:47.022Z,102446.77
2018-12-05T00:37:14.394Z,102448.02
2018-12-05T00:39:41.663Z,102446.27
2018-12-05T00:42:09.070Z,102449.47
2018-12-05T00:44:36.450Z,102451.67
2018-12-05T00:47:03.764Z,102447.96
2018-12-05T00:49:31.062Z,102451.16
2018-12-05T00:51:58.330Z,102449.21
2018-12-05T00:54:25.590Z,102453.14
2018-12-05T00:56:52.910Z,102453.45
2018-12-05T00:59:20.198Z,102453.44
2018-12-05T01:01:47.503Z,102453.32
2018-12-05T01:04:14.779Z,102457.39
2018-12-05T01:06:42.319Z,102460.26
2018-12-05T01:09:11.951Z,102464.32
2018-12-05T01:11:40.248Z,102466.74
2018-12-05T01:14:07.557Z,102480.55
2018-12-05T01:16:51.907Z,102486.20
2018-12-05T01:19:19.187Z,102480.06
2018-12-05T01:21:46.458Z,102484.52
2018-12-05T01:24:13.772Z,102497.55
2018-12-05T01:26:41.103Z,102498.57
2018-12-05T01:29:08.522Z,102479.27
2018-12-05T01:31:35.819Z,102483.20
2018-12-05T01:34:03.163Z,102479.48
2018-12-05T01:36:30.446Z,102485.59
2018-12-05T01:38:57.742Z,102484.58
2018-12-05T01:41:25.046Z,102480.73
2018-12-05T01:43:52.662Z,102490.09
2018-12-05T01:46:19.952Z,102487.33
2018-12-05T01:48:47.230Z,102486.50
2018-12-05T01:51:14.540Z,102477.80
2018-12-05T01:53:41.822Z,102485.38
2018-12-05T01:56:09.107Z,102491.22
2018-12-05T01:58:37.459Z,102492.58
2018-12-05T02:01:04.770Z,102485.98
2018-12-05T02:03:32.074Z,102493.65
2018-12-05T02:05:59.378Z,102493.34
2018-12-05T02:08:26.715Z,102495.05
2018-12-05T02:10:54.002Z,102495.94
2018-12-05T02:13:21.299Z,102496.17
2018-12-05T02:15:48.592Z,102491.48
2018-12-05T02:18:15.886Z,102493.20
2018-12-05T02:20:43.426Z,102492.33
2018-12-05T02:23:10.718Z,102491.02
2018-12-05T02:25:38.498Z,102489.06
2018-12-05T02:28:06.843Z,102483.87
2018-12-05T02:30:34.146Z,102488.83
2018-12-05T02:33:02.407Z,102487.79
2018-12-05T02:35:29.722Z,102487.08
2018-12-05T02:37:57.034Z,102490.52
2018-12-05T02:40:24.306Z,102480.02
2018-12-05T02:42:51.594Z,102472.63
2018-12-05T02:45:18.900Z,102465.35
2018-12-05T02:47:46.284Z,102464.22
2018-12-05T02:50:13.682Z,102467.19
2018-12-05T02:52:40.970Z,102470.83
2018-12-05T02:55:08.274Z,102469.23
2018-12-05T02:57:35.574Z,102467.95
2018-12-05T03:00:04.642Z,102476.62
2018-12-05T03:02:33.968Z,102473.38
2018-12-05T03:05:01.303Z,102477.95
2018-12-05T03:07:28.610Z,102480.91
2018-12-05T03:09:55.975Z,102477.26
2018-12-05T03:12:23.275Z,102477.84
2018-12-05T03:14:50.554Z,102484.63
2018-12-05T03:17:17.840Z,102488.89
2018-12-05T03:19:45.114Z,102488.25
2018-12-05T03:22:12.543Z,102492.28
2018-12-05T03:24:39.824Z,102489.66
2018-12-05T03:27:07.118Z,102490.14
2018-12-05T03:29:34.414Z,102488.04
2018-12-05T03:32:03.788Z,102496.61
2018-12-05T03:34:31.171Z,102494.20
2018-12-05T03:36:58.514Z,102490.63
2018-12-05T03:39:25.859Z,102494.26
2018-12-05T03:41:53.155Z,102490.55
2018-12-05T03:44:20.446Z,102494.21
2018-12-05T03:46:47.755Z,102511.45
2018-12-05T03:49:15.138Z,102505.32
2018-12-05T03:51:42.434Z,102510.80
2018-12-05T03:54:09.702Z,102505.81
2018-12-05T03:56:36.994Z,102512.95
2018-12-05T03:59:04.408Z,102505.88
2018-12-05T04:01:31.721Z,102517.22
2018-12-05T04:03:59.117Z,102511.14
2018-12-05T04:06:26.442Z,102515.16
2018-12-05T04:08:53.808Z,102514.48
2018-12-05T04:11:21.139Z,102511.34
2018-12-05T04:13:48.664Z,102512.58
2018-12-05T04:16:16.015Z,102510.30
2018-12-05T04:18:43.328Z,102509.48
2018-12-05T04:21:10.651Z,102509.20
2018-12-05T04:23:37.987Z,102516.47
2018-12-05T04:26:05.311Z,102517.87
2018-12-05T04:28:32.616Z,102517.83
2018-12-05T04:30:59.947Z,102517.17
2018-12-05T04:33:29.317Z,102516.92
2018-12-05T04:35:56.627Z,102515.56
2018-12-05T04:38:23.976Z,102518.44
2018-12-05T04:40:51.342Z,102516.45
2018-12-05T04:43:18.664Z,102519.34
2018-12-05T04:45:46.018Z,102519.48
2018-12-05T04:48:13.311Z,102512.34
2018-12-05T04:50:40.718Z,102515.81
2018-12-05T04:53:08.014Z,102521.48
2018-12-05T04:55:36.423Z,102519.16
2018-12-05T04:58:03.748Z,102522.91
2018-12-05T05:00:31.791Z,102525.86
2018-12-05T05:02:59.206Z,102527.19
2018-12-05T05:05:26.735Z,102530.02
2018-12-05T05:07:54.037Z,102529.10
2018-12-05T05:10:21.339Z,102538.52
2018-12-05T05:12:48.663Z,102531.78
2018-12-05T05:15:17.006Z,102535.41
2018-12-05T05:17:45.366Z,102535.06
2018-12-05T05:20:12.787Z,102535.37
2018-12-05T05:22:40.113Z,102537.56
2018-12-05T05:25:07.654Z,102540.52
2018-12-05T05:27:34.970Z,102537.08
2018-12-05T05:30:02.815Z,102538.70
2018-12-05T05:32:30.258Z,102542.94
2018-12-05T05:34:57.543Z,102542.41
2018-12-05T05:37:24.849Z,102539.78
2018-12-05T05:39:53.414Z,102538.73
2018-12-05T05:42:20.730Z,102543.55
2018-12-05T05:44:48.059Z,102536.71
2018-12-05T05:47:15.374Z,102539.26
2018-12-05T05:49:42.702Z,102547.14
2018-12-05T05:52:10.047Z,102548.87
2018-12-05T05:54:37.333Z,102552.98
2018-12-05T05:57:04.770Z,102563.44
2018-12-05T05:59:32.041Z,102566.43
2018-12-05T06:01:59.363Z,102553.27
2018-12-05T06:04:26.690Z,102557.02
2018-12-05T06:06:54.070Z,102557.94
2018-12-05T06:09:21.375Z,102560.86
2018-12-05T06:11:48.719Z,102559.37
2018-12-05T06:14:16.031Z,102558.16
2018-12-05T06:16:43.351Z,102563.92
2018-12-05T06:19:10.669Z,102569.56
2018-12-05T06:21:38.054Z,102558.75
2018-12-05T06:24:05.523Z,102562.59
2018-12-05T06:26:32.844Z,102564.40
2018-12-05T06:29:00.175Z,102564.50
2018-12-05T06:31:27.499Z,102566.20
2018-12-05T06:33:54.956Z,102560.38
2018-12-05T06:36:22.303Z,102563.80
2018-12-05T06:38:49.617Z,102558.04
2018-12-05T06:41:16.915Z,102561.52
2018-12-05T06:43:44.226Z,102564.66
2018-12-05T06:46:11.547Z,102566.72
2018-12-05T06:48:38.884Z,102566.25
2018-12-05T06:51:06.299Z,102570.23
2018-12-05T06:53:33.615Z,102573.85
2018-12-05T06:56:00.938Z,102576.41
2018-12-05T06:58:28.250Z,102584.80
2018-12-05T07:00:55.559Z,102587.82
2018-12-05T07:03:22.911Z,102585.13
2018-12-05T07:05:50.236Z,102584.97
2018-12-05T07:08:17.589Z,102590.96
2018-12-05T07:10:44.915Z,102584.67
2018-12-05T07:13:12.258Z,102581.83
2018-12-05T07:15:39.679Z,102576.33
2018-12-05T07:18:07.067Z,102574.41
2018-12-05T07:20:34.374Z,102577.33
2018-12-05T07:23:01.978Z,102575.52
2018-12-05T07:25:29.319Z,102575.63
2018-12-05T07:27:56.618Z,102578.66
2018-12-05T07:30:29.418Z,102575.81
2018-12-05T07:32:53.310Z,102567.57
2018-12-05T07:35:20.647Z,102569.53
2018-12-05T07:37:47.955Z,102566.02
2018-12-05T07:40:16.487Z,102564.44
2018-12-05T07:42:44.127Z,102568.02
2018-12-05T07:45:11.451Z,102568.83
2018-12-05T07:47:38.746Z,102568.09
2018-12-05T07:50:06.251Z,102577.07
2018-12-05T07:52:33.572Z,102577.03
2018-12-05T07:55:00.895Z,102583.94
2018-12-05T07:57:28.215Z,102582.24
2018-12-05T07:59:55.687Z,102584.74
2018-12-05T08:02:23.009Z,102599.12
2018-12-05T08:04:50.474Z,102596.27
2018-12-05T08:07:17.832Z,102604.14
2018-12-05T08:09:45.171Z,102600.39
2018-12-05T08:12:12.489Z,102601.36
2018-12-05T08:14:39.824Z,102600.55
2018-12-05T08:17:07.118Z,102609.98
2018-12-05T08:19:34.483Z,102608.52
2018-12-05T08:22:01.967Z,102606.98
2018-12-05T08:24:29.331Z,102611.44
2018-12-05T08:26:56.816Z,102613.66
2018-12-05T08:29:24.159Z,102610.70
2018-12-05T08:31:51.510Z,102618.03
2018-12-05T08:34:18.842Z,102612.72
2018-12-05T08:36:46.187Z,102612.02
2018-12-05T08:39:13.650Z,102607.53
2018-12-05T08:41:41.104Z,102615.11
2018-12-05T08:44:08.535Z,102615.39
2018-12-05T08:46:35.983Z,102616.41
2018-12-05T08:49:03.449Z,102622.08
2018-12-05T08:51:30.962Z,102618.25
2018-12-05T08:53:58.324Z,102616.59
2018-12-05T08:56:25.668Z,102617.44
2018-12-05T08:58:53.087Z,102609.30
2018-12-05T09:01:20.551Z,102609.14
2018-12-05T09:03:48.067Z,102606.34
2018-12-05T09:06:15.631Z,102608.17
2018-12-05T09:08:43.100Z,102612.42
2018-12-05T09:11:10.439Z,102612.51
2018-12-05T09:13:37.911Z,102611.34
2018-12-05T09:16:05.250Z,102616.37
2018-12-05T09:18:32.603Z,102613.70
2018-12-05T09:20:59.939Z,102609.90
2018-12-05T09:23:27.242Z,102610.34
2018-12-05T09:25:54.731Z,102614.78
2018-12-05T09:28:22.167Z,102615.92
2018-12-05T09:30:49.496Z,102609.83
2018-12-05T09:33:17.911Z,102617.36
2018-12-05T09:35:45.239Z,102609.25
2018-12-05T09:38:12.579Z,102612.13
2018-12-05T09:40:39.920Z,102610.00
2018-12-05T09:43:07.261Z,102606.20
2018-12-05T09:45:34.571Z,102606.01
2018-12-05T09:48:03.195Z,102609.00
2018-12-05T09:50:30.508Z,102610.58
2018-12-05T09:52:57.951Z,102606.50
2018-12-05T09:55:25.375Z,102610.41
2018-12-05T09:57:52.920Z,102612.45
2018-12-05T10:00:20.251Z,102615.27
2018-12-05T10:02:47.812Z,102610.45
2018-12-05T10:05:15.131Z,102606.63
2018-12-05T10:07:42.474Z,102603.56
2018-12-05T10:10:09.819Z,102605.47
2018-12-05T10:12:37.150Z,102599.61
2018-12-05T10:15:05.641Z,102601.03
2018-12-05T10:17:32.994Z,102596.79
2018-12-05T10:20:00.418Z,102595.16
2018-12-05T10:22:27.763Z,102592.40
2018-12-05T10:24:55.082Z,102586.30
2018-12-05T10:27:22.591Z,102582.61
2018-12-05T10:29:49.927Z,102582.55
2018-12-05T10:32:17.255Z,102586.73
2018-12-05T10:34:44.576Z,102589.66
2018-12-05T10:37:12.023Z,102592.09
2018-12-05T10:39:39.355Z,102583.31
2018-12-05T10:42:06.731Z,102586.19
2018-12-05T10:44:34.163Z,102582.65
2018-12-05T10:47:01.621Z,102583.00
2018-12-05T10:49:29.099Z,102583.25
2018-12-05T10:51:56.542Z,102579.82
2018-12-05T10:54:23.871Z,102582.48
2018-12-05T10:56:51.327Z,102572.86
2018-12-05T10:59:18.661Z,102568.50
2018-12-05T11:01:51.659Z,102571.09
2018-12-05T11:04:24.667Z,102560.30
2018-12-05T11:06:57.670Z,102561.48
2018-12-05T11:09:30.903Z,102556.41
2018-12-05T11:12:03.899Z,102555.58
2018-12-05T11:14:37.063Z,102549.70
2018-12-05T11:17:10.167Z,102543.23
2018-12-05T11:19:43.199Z,102546.87
2018-12-05T11:23:14.683Z,102551.47
2018-12-05T11:25:43.163Z,102547.95
2018-12-05T11:28:10.496Z,102540.88
2018-12-05T11:30:37.815Z,102544.31
2018-12-05T11:33:05.162Z,102541.77
2018-12-05T11:35:32.458Z,102534.70
2018-12-05T11:37:59.761Z,102534.70
2018-12-05T11:40:27.239Z,102530.64
2018-12-05T11:42:54.675Z,102532.36
2018-12-05T11:45:21.986Z,102526.62
2018-12-05T11:47:49.306Z,102526.43
2018-12-05T11:50:16.610Z,102529.03
2018-12-05T11:52:43.923Z,102525.52
2018-12-05T11:55:11.319Z,102525.63
2018-12-05T11:57:38.627Z,102525.73
2018-12-05T12:00:07.063Z,102522.28
2018-12-05T12:02:34.379Z,102515.83
2018-12-05T12:05:04.158Z,102508.36
2018-12-05T12:07:31.494Z,102512.36
2018-12-05T12:09:59.110Z,102516.31
2018-12-05T12:12:32.192Z,102516.12
2018-12-05T12:14:59.622Z,102511.99
2018-12-05T12:17:27.086Z,102508.81
2018-12-05T12:19:54.384Z,102506.16
2018-12-05T12:22:21.703Z,102501.28
2018-12-05T12:24:49.016Z,102501.45
2018-12-05T12:27:16.568Z,102500.05
2018-12-05T12:29:44.003Z,102503.26
2018-12-05T12:32:11.310Z,102503.77
2018-12-05T12:34:38.639Z,102497.02
2018-12-05T12:37:05.950Z,102493.63
2018-12-05T12:39:33.255Z,102487.44
2018-12-05T12:42:00.548Z,102484.70
2018-12-05T12:44:27.899Z,102488.66
2018-12-05T12:46:55.204Z,102483.09
2018-12-05T12:49:22.524Z,102483.27
2018-12-05T12:51:49.827Z,102479.03
2018-12-05T12:54:17.131Z,102472.92
2018-12-05T12:56:44.435Z,102477.14
2018-12-05T12:59:11.756Z,102473.13
2018-12-05T13:01:39.058Z,102474.05
2018-12-05T13:04:06.394Z,102474.53
2018-12-05T13:06:33.794Z,102475.92
2018-12-05T13:09:01.906Z,102468.28
2018-12-05T13:11:31.591Z,102462.12
2018-12-05T13:13:58.907Z,102463.95
2018-12-05T13:16:26.212Z,102468.55
2018-12-05T13:18:53.535Z,102459.71
2018-12-05T13:21:21.847Z,102464.10
2018-12-05T13:23:49.175Z,102455.84
2018-12-05T13:26:16.475Z,102452.40
2018-12-05T13:28:43.825Z,102445.27
2018-12-05T13:31:12.068Z,102443.00
2018-12-05T13:33:39.342Z,102442.17
2018-12-05T13:36:06.806Z,102441.61
2018-12-05T13:38:34.102Z,102432.66
2018-12-05T13:41:01.482Z,102433.27
2018-12-05T13:43:30.103Z,102430.91
2018-12-05T13:45:57.522Z,102427.89
2018-12-05T13:48:25.047Z,102418.98
2018-12-05T13:50:52.472Z,102417.05
2018-12-05T13:53:19.831Z,102419.11
2018-12-05T13:55:48.250Z,102405.59
2018-12-05T13:58:15.847Z,102404.16
2018-12-05T14:00:43.311Z,102406.37
2018-12-05T14:03:10.616Z,102406.06
2018-12-05T14:05:39.263Z,102408.27
2018-12-05T14:08:06.570Z,102407.20
2018-12-05T14:10:33.891Z,102397.36
2018-12-05T14:13:01.263Z,102400.77
2018-12-05T14:15:28.644Z,102395.27
2018-12-05T14:18:01.363Z,102390.86
2018-12-05T14:20:25.459Z,102387.00
2018-12-05T14:22:52.771Z,102382.08
2018-12-05T14:25:20.082Z,102383.89
2018-12-05T14:27:47.708Z,102386.97
2018-12-05T14:30:15.077Z,102372.42
2018-12-05T14:32:42.558Z,102364.83
2018-12-05T14:35:09.944Z,102370.81
2018-12-05T14:37:37.380Z,102359.52
2018-12-05T14:40:05.285Z,102354.75
2018-12-05T14:42:33.783Z,102354.81
2018-12-05T14:45:01.133Z,102357.43
2018-12-05T14:47:28.418Z,102363.50
2018-12-05T14:49:55.941Z,102361.28
2018-12-05T14:52:23.236Z,102363.28
2018-12-05T14:54:50.523Z,102368.31
2018-12-05T14:57:18.001Z,102358.95
2018-12-05T14:59:45.312Z,102355.00
2018-12-05T15:02:12.622Z,102348.41
2018-12-05T15:04:40.167Z,102343.80
2018-12-05T15:07:07.471Z,102330.11
2018-12-05T15:09:34.819Z,102332.08
2018-12-05T15:12:02.188Z,102325.47
2018-12-05T15:14:29.499Z,102325.31
2018-12-05T15:16:56.847Z,102322.66
2018-12-05T15:19:24.251Z,102323.45
2018-12-05T15:21:51.655Z,102320.20
2018-12-05T15:24:18.980Z,102309.70
2018-12-05T15:26:46.442Z,102312.18
2018-12-05T15:29:17.239Z,102317.98
2018-12-05T15:31:44.675Z,102314.72
2018-12-05T15:34:12.140Z,102317.03
2018-12-05T15:36:40.591Z,102312.42
2018-12-05T15:39:08.055Z,102311.28
2018-12-05T15:41:35.659Z,102301.02
2018-12-05T15:44:02.979Z,102305.03
2018-12-05T15:46:30.295Z,102301.71
2018-12-05T15:48:57.740Z,102296.05
2018-12-05T15:51:25.063Z,102288.80
2018-12-05T15:53:52.403Z,102296.73
2018-12-05T15:56:19.743Z,102281.75
2018-12-05T15:58:47.061Z,102276.97
2018-12-05T16:01:14.382Z,102272.98
2018-12-05T16:03:43.375Z,102272.77
2018-12-05T16:06:11.028Z,102273.88
2018-12-05T16:08:38.335Z,102264.92
2018-12-05T16:11:05.980Z,102266.22
2018-12-05T16:13:33.287Z,102265.86
2018-12-05T16:16:00.588Z,102262.94
2018-12-05T16:18:27.923Z,102259.39
2018-12-05T16:20:55.275Z,102254.61
2018-12-05T16:23:22.754Z,102248.13
2018-12-05T16:25:50.072Z,102246.91
2018-12-05T16:28:17.514Z,102232.13
2018-12-05T16:30:44.819Z,102229.81
2018-12-05T16:33:12.141Z,102225.30
2018-12-05T16:35:39.445Z,102230.09
2018-12-05T16:38:06.931Z,102230.57
2018-12-05T16:40:34.263Z,102221.83
2018-12-05T16:43:01.595Z,102219.52
2018-12-05T16:48:21.803Z,102212.53
2018-12-05T16:50:49.151Z,102201.50
2018-12-05T16:53:16.515Z,102206.73
2018-12-05T16:55:43.823Z,102202.28
2018-12-05T16:58:11.271Z,102199.20
2018-12-05T17:00:38.602Z,102190.88
2018-12-05T17:03:05.967Z,102192.34
2018-12-05T17:05:33.307Z,102193.41
2018-12-05T17:08:00.646Z,102191.05
2018-12-05T17:10:27.972Z,102195.48
2018-12-05T17:12:55.539Z,102196.50
2018-12-05T17:15:22.896Z,102196.67
2018-12-05T17:17:51.280Z,102184.01
2018-12-05T17:20:18.642Z,102181.70
2018-12-05T17:22:46.003Z,102170.50
2018-12-05T17:25:13.347Z,102169.71
2018-12-05T17:27:40.658Z,102165.93
2018-12-05T17:30:08.238Z,102168.13
2018-12-05T17:32:35.595Z,102161.87
2018-12-05T17:35:03.720Z,102156.31
2018-12-05T17:37:31.072Z,102155.58
2018-12-05T17:39:58.408Z,102149.71
2018-12-05T17:42:27.075Z,102156.81
2018-12-05T17:44:54.391Z,102151.51
2018-12-05T17:47:21.727Z,102147.20
2018-12-05T17:49:49.095Z,102141.03
2018-12-05T17:52:16.415Z,102141.28
2018-12-05T17:55:00.698Z,102141.83
2018-12-05T17:57:28.979Z,102139.00
2018-12-05T17:59:56.299Z,102135.44
2018-12-05T18:02:23.592Z,102137.73
2018-12-05T18:04:51.947Z,102140.67
2018-12-05T18:07:19.252Z,102129.91
2018-12-05T18:09:46.554Z,102128.26
2018-12-05T18:12:13.868Z,102119.00
2018-12-05T18:14:42.388Z,102117.95
2018-12-05T18:17:09.734Z,102110.67
2018-12-05T18:19:37.128Z,102115.98
2018-12-05T18:22:04.469Z,102115.50
2018-12-05T18:24:31.827Z,102117.27
2018-12-05T18:26:59.272Z,102108.20
2018-12-05T18:29:26.659Z,102096.62
2018-12-05T18:31:53.995Z,102086.34
2018-12-05T18:34:21.351Z,102084.34
2018-12-05T18:36:48.668Z,102080.88
2018-12-05T18:39:16.019Z,102074.80
2018-12-05T18:41:43.364Z,102067.62
2018-12-05T18:44:10.751Z,102070.48
2018-12-05T18:46:38.091Z,102066.12
2018-12-05T18:49:05.462Z,102064.67
2018-12-05T18:51:32.784Z,102061.06
2018-12-05T18:54:00.137Z,102056.93
2018-12-05T18:56:27.490Z,102051.85
2018-12-05T18:58:54.849Z,102041.16
2018-12-05T19:01:22.199Z,102034.77
2018-12-05T19:03:49.633Z,102029.58
2018-12-05T19:06:16.953Z,102033.89
2018-12-05T19:08:44.299Z,102024.36
2018-12-05T19:11:11.663Z,102027.25
2018-12-05T19:13:45.061Z,102016.34
2018-12-05T19:16:12.432Z,102023.19
2018-12-05T19:18:39.938Z,102017.75
2018-12-05T19:21:07.277Z,102021.16
2018-12-05T19:23:34.598Z,102011.74
2018-12-05T19:26:01.943Z,102015.41
2018-12-05T19:28:29.439Z,102014.38
2018-12-05T19:30:56.780Z,102013.56
2018-12-05T19:33:24.091Z,102009.97
2018-12-05T19:35:52.490Z,102012.48
2018-12-05T19:38:20.619Z,102006.94
2018-12-05T19:40:48.067Z,102013.71
2018-12-05T19:43:15.383Z,102000.67
2018-12-05T19:45:42.931Z,102000.02
2018-12-05T19:48:10.270Z,101994.20
2018-12-05T19:50:37.588Z,101989.05
2018-12-05T19:53:04.906Z,101996.63
2018-12-05T19:55:32.204Z,101990.06
2018-12-05T19:58:00.550Z,101984.73
2018-12-05T20:00:28.190Z,101984.66
2018-12-05T20:02:57.564Z,101980.39
2018-12-05T20:08:55.846Z,101972.66
2018-12-05T20:11:23.342Z,101973.16
2018-12-05T20:13:50.639Z,101964.50
2018-12-05T20:16:19.534Z,101963.25
2018-12-05T20:18:46.859Z,101959.75
2018-12-05T20:21:14.146Z,101958.22
2018-12-05T20:23:41.447Z,101962.63
2018-12-05T20:26:08.773Z,101947.68
2018-12-05T20:28:36.097Z,101947.39
2018-12-05T20:31:03.477Z,101944.18
2018-12-05T20:33:30.816Z,101935.03
2018-12-05T20:35:58.140Z,101928.91
2018-12-05T20:38:25.499Z,101922.30
2018-12-05T20:40:52.829Z,101913.94
2018-12-05T20:43:20.159Z,101901.33
2018-12-05T20:45:47.493Z,101907.71
2018-12-05T20:48:14.898Z,101890.87
2018-12-05T20:50:43.275Z,101893.31
2018-12-05T20:53:10.612Z,101887.61
2018-12-05T20:55:38.059Z,101891.02
2018-12-05T20:58:05.567Z,101887.87
2018-12-05T21:00:32.895Z,101888.33
2018-12-05T21:03:00.247Z,101884.38
2018-12-05T21:05:27.676Z,101876.17
2018-12-05T21:07:55.339Z,101886.77
2018-12-05T21:10:22.703Z,101885.52
2018-12-05T21:12:50.006Z,101888.09
2018-12-05T21:15:17.366Z,101879.61
2018-12-05T21:17:44.801Z,101882.94
2018-12-05T21:20:12.163Z,101875.44
2018-12-05T21:22:46.925Z,101869.79
2018-12-05T21:25:08.838Z,101863.16
2018-12-05T21:27:36.179Z,101857.72
2018-12-05T21:30:05.913Z,101859.61
2018-12-05T21:32:33.229Z,101853.61
2018-12-05T21:35:00.555Z,101845.38
2018-12-05T21:37:27.863Z,101838.67
2018-12-05T21:39:55.183Z,101833.17
2018-12-05T21:42:22.623Z,101839.61
2018-12-05T21:44:49.938Z,101828.71
2018-12-05T21:47:17.230Z,101825.31
2018-12-05T21:49:44.552Z,101818.44
2018-12-05T21:52:11.891Z,101816.19
2018-12-05T21:54:39.194Z,101810.81
2018-12-05T21:57:06.635Z,101809.95
2018-12-05T21:59:34.075Z,101811.70
2018-12-05T22:02:01.483Z,101802.17
2018-12-05T22:04:28.967Z,101803.60
2018-12-05T22:06:56.368Z,101799.89
2018-12-05T22:09:23.735Z,101797.89
2018-12-05T22:11:51.108Z,101801.59
2018-12-05T22:14:18.451Z,101802.55
2018-12-05T22:16:45.781Z,101796.84
2018-12-05T22:19:13.222Z,101805.36
2018-12-05T22:21:40.547Z,101800.27
2018-12-05T22:24:08.032Z,101803.66
2018-12-05T22:26:35.459Z,101797.83
2018-12-05T22:29:02.803Z,101799.91
2018-12-05T22:31:30.123Z,101793.75
2018-12-05T22:33:59.203Z,101787.48
2018-12-05T22:36:26.603Z,101789.77
2018-12-05T22:38:53.936Z,101787.25
2018-12-05T22:41:21.291Z,101778.81
2018-12-05T22:43:48.595Z,101764.45
2018-12-05T22:46:18.246Z,101754.72
2018-12-05T22:48:45.666Z,101756.73
2018-12-05T22:51:12.972Z,101752.37
2018-12-05T22:53:40.301Z,101756.04
2018-12-05T22:56:07.840Z,101745.38
2018-12-05T22:58:35.155Z,101736.55
2018-12-05T23:01:03.313Z,101731.89
2018-12-05T23:03:32.843Z,101725.28
2018-12-05T23:06:00.166Z,101725.41
2018-12-05T23:08:28.127Z,101715.17
2018-12-05T23:10:55.504Z,101713.60
2018-12-05T23:13:22.823Z,101712.90
2018-12-05T23:15:50.147Z,101710.86
2018-12-05T23:18:17.479Z,101712.56
2018-12-05T23:20:44.843Z,101702.78
2018-12-05T23:23:12.163Z,101697.01
2018-12-05T23:25:39.503Z,101692.56
2018-12-05T23:28:06.995Z,101692.69
2018-12-05T23:30:34.304Z,101683.89
2018-12-05T23:33:01.724Z,101673.39
2018-12-05T23:35:29.271Z,101664.41
2018-12-05T23:37:56.591Z,101667.91
2018-12-05T23:40:23.918Z,101667.88
2018-12-05T23:42:51.387Z,101664.74
2018-12-05T23:45:18.881Z,101651.72
2018-12-05T23:47:46.312Z,101644.89
2018-12-05T23:50:13.654Z,101632.88
2018-12-05T23:52:40.990Z,101621.04
2018-12-05T23:55:08.366Z,101622.64
2018-12-05T23:57:35.743Z,101619.66
